sensor_id;sensor_type;location;lat;lon;timestamp;pressure;altitude;pressure_sealevel;temperature;humidity
28911;BME280;16028;42.642;23.310;2023-04-16T00:01:00;93474.47;;;12.19;55.24
28911;BME280;16028;42.642;23.310;2023-04-16T00:03:27;93469.78;;;12.14;55.55
28911;BME280;16028;42.642;23.310;2023-04-16T00:05:53;93462.31;;;12.11;56.15
28911;BME280;16028;42.642;23.310;2023-04-16T00:08:21;93463.47;;;12.09;56.14
28911;BME280;16028;42.642;23.310;2023-04-16T00:10:48;93461.03;;;12.07;56.43
28911;BME280;16028;42.642;23.310;2023-04-16T00:13:16;93462.66;;;12.08;56.22
28911;BME280;16028;42.642;23.310;2023-04-16T00:15:43;93460.69;;;12.10;55.96
28911;BME280;16028;42.642;23.310;2023-04-16T00:18:09;93455.13;;;12.13;55.87
28911;BME280;16028;42.642;23.310;2023-04-16T00:20:36;93451.06;;;12.11;55.65
28911;BME280;16028;42.642;23.310;2023-04-16T00:23:02;93455.00;;;12.07;56.12
28911;BME280;16028;42.642;23.310;2023-04-16T00:25:29;93443.31;;;12.03;56.37
28911;BME280;16028;42.642;23.310;2023-04-16T00:27:55;93455.69;;;12.01;56.43
28911;BME280;16028;42.642;23.310;2023-04-16T00:30:23;93447.22;;;11.99;56.79
28911;BME280;16028;42.642;23.310;2023-04-16T00:32:49;93449.84;;;11.99;56.87
28911;BME280;16028;42.642;23.310;2023-04-16T00:35:16;93456.34;;;11.95;57.49
28911;BME280;16028;42.642;23.310;2023-04-16T00:37:42;93452.13;;;11.94;57.61
28911;BME280;16028;42.642;23.310;2023-04-16T00:40:10;93459.91;;;12.02;58.89
28911;BME280;16028;42.642;23.310;2023-04-16T00:42:37;93451.00;;;11.88;58.49
28911;BME280;16028;42.642;23.310;2023-04-16T00:45:03;93451.06;;;11.80;59.46
28911;BME280;16028;42.642;23.310;2023-04-16T00:47:33;93446.66;;;11.73;60.07
28911;BME280;16028;42.642;23.310;2023-04-16T00:49:59;93454.66;;;11.63;60.20
28911;BME280;16028;42.642;23.310;2023-04-16T00:52:26;93449.97;;;11.50;60.41
28911;BME280;16028;42.642;23.310;2023-04-16T00:54:53;93444.28;;;11.47;61.27
28911;BME280;16028;42.642;23.310;2023-04-16T00:57:21;93450.78;;;11.43;62.74
28911;BME280;16028;42.642;23.310;2023-04-16T00:59:48;93449.66;;;11.37;63.55
28911;BME280;16028;42.642;23.310;2023-04-16T01:02:14;93444.16;;;11.24;64.36
28911;BME280;16028;42.642;23.310;2023-04-16T01:04:45;93444.50;;;11.13;65.27
28911;BME280;16028;42.642;23.310;2023-04-16T01:07:12;93443.06;;;11.02;65.31
28911;BME280;16028;42.642;23.310;2023-04-16T01:09:38;93450.69;;;10.96;64.96
28911;BME280;16028;42.642;23.310;2023-04-16T01:12:05;93449.38;;;10.92;65.44
28911;BME280;16028;42.642;23.310;2023-04-16T01:14:31;93453.97;;;10.90;66.58
28911;BME280;16028;42.642;23.310;2023-04-16T01:17:00;93451.03;;;10.85;67.56
28911;BME280;16028;42.642;23.310;2023-04-16T01:19:27;93451.84;;;10.77;68.30
28911;BME280;16028;42.642;23.310;2023-04-16T01:21:56;93454.28;;;10.71;68.24
28911;BME280;16028;42.642;23.310;2023-04-16T01:24:23;93452.97;;;10.67;68.45
28911;BME280;16028;42.642;23.310;2023-04-16T01:26:49;93452.66;;;10.61;68.76
28911;BME280;16028;42.642;23.310;2023-04-16T01:29:16;93454.75;;;10.50;68.72
28911;BME280;16028;42.642;23.310;2023-04-16T01:31:42;93443.38;;;10.43;69.35
28911;BME280;16028;42.642;23.310;2023-04-16T01:34:10;93450.81;;;10.38;69.02
28911;BME280;16028;42.642;23.310;2023-04-16T01:36:37;93443.03;;;10.38;69.85
28911;BME280;16028;42.642;23.310;2023-04-16T01:39:05;93440.75;;;10.35;70.27
28911;BME280;16028;42.642;23.310;2023-04-16T01:41:32;93440.75;;;10.27;70.21
28911;BME280;16028;42.642;23.310;2023-04-16T01:43:59;93433.72;;;10.19;70.20
28911;BME280;16028;42.642;23.310;2023-04-16T01:46:26;93430.81;;;10.22;70.40
28911;BME280;16028;42.642;23.310;2023-04-16T01:48:53;93423.03;;;10.22;70.10
28911;BME280;16028;42.642;23.310;2023-04-16T01:51:20;93413.91;;;10.18;69.59
28911;BME280;16028;42.642;23.310;2023-04-16T01:53:46;93421.34;;;10.13;69.67
28911;BME280;16028;42.642;23.310;2023-04-16T01:56:14;93424.09;;;10.11;69.53
28911;BME280;16028;42.642;23.310;2023-04-16T01:58:40;93417.94;;;10.13;69.95
28911;BME280;16028;42.642;23.310;2023-04-16T02:01:07;93417.13;;;10.12;69.84
28911;BME280;16028;42.642;23.310;2023-04-16T02:03:34;93412.75;;;10.13;69.58
28911;BME280;16028;42.642;23.310;2023-04-16T02:06:00;93416.03;;;10.15;69.92
28911;BME280;16028;42.642;23.310;2023-04-16T02:08:27;93418.63;;;10.15;69.55
28911;BME280;16028;42.642;23.310;2023-04-16T02:10:54;93418.31;;;10.18;70.33
28911;BME280;16028;42.642;23.310;2023-04-16T02:13:22;93428.03;;;10.16;70.92
28911;BME280;16028;42.642;23.310;2023-04-16T02:15:50;93434.34;;;10.13;70.76
28911;BME280;16028;42.642;23.310;2023-04-16T02:18:17;93429.50;;;10.18;71.47
28911;BME280;16028;42.642;23.310;2023-04-16T02:20:44;93424.47;;;10.17;71.57
28911;BME280;16028;42.642;23.310;2023-04-16T02:23:11;93430.13;;;10.12;71.83
28911;BME280;16028;42.642;23.310;2023-04-16T02:25:39;93418.44;;;10.08;71.67
28911;BME280;16028;42.642;23.310;2023-04-16T02:28:06;93417.13;;;10.12;71.51
28911;BME280;16028;42.642;23.310;2023-04-16T02:30:34;93414.22;;;10.15;71.12
28911;BME280;16028;42.642;23.310;2023-04-16T02:33:01;93419.09;;;10.18;70.89
28911;BME280;16028;42.642;23.310;2023-04-16T02:35:29;93417.81;;;10.22;71.04
28911;BME280;16028;42.642;23.310;2023-04-16T02:37:56;93421.56;;;10.28;70.72
28911;BME280;16028;42.642;23.310;2023-04-16T02:40:22;93411.66;;;10.31;70.68
28911;BME280;16028;42.642;23.310;2023-04-16T02:42:49;93408.09;;;10.32;70.39
28911;BME280;16028;42.642;23.310;2023-04-16T02:45:16;93403.41;;;10.36;70.20
28911;BME280;16028;42.642;23.310;2023-04-16T02:47:43;93407.44;;;10.38;70.48
28911;BME280;16028;42.642;23.310;2023-04-16T02:50:10;93411.00;;;10.37;69.88
28911;BME280;16028;42.642;23.310;2023-04-16T02:52:37;93401.94;;;10.33;69.81
28911;BME280;16028;42.642;23.310;2023-04-16T02:55:03;93404.84;;;10.30;70.34
28911;BME280;16028;42.642;23.310;2023-04-16T02:57:30;93399.97;;;10.27;71.04
28911;BME280;16028;42.642;23.310;2023-04-16T02:59:58;93401.59;;;10.28;71.10
28911;BME280;16028;42.642;23.310;2023-04-16T03:02:25;93405.66;;;10.31;72.15
28911;BME280;16028;42.642;23.310;2023-04-16T03:04:53;93399.00;;;10.28;72.45
28911;BME280;16028;42.642;23.310;2023-04-16T03:07:19;93396.88;;;10.24;73.48
28911;BME280;16028;42.642;23.310;2023-04-16T03:09:46;93397.34;;;10.19;73.59
28911;BME280;16028;42.642;23.310;2023-04-16T03:12:12;93395.72;;;10.18;73.88
28911;BME280;16028;42.642;23.310;2023-04-16T03:14:39;93404.19;;;10.20;74.04
28911;BME280;16028;42.642;23.310;2023-04-16T03:17:05;93406.13;;;10.18;74.35
28911;BME280;16028;42.642;23.310;2023-04-16T03:19:32;93410.34;;;10.19;74.20
28911;BME280;16028;42.642;23.310;2023-04-16T03:21:59;93410.66;;;10.16;73.34
28911;BME280;16028;42.642;23.310;2023-04-16T03:24:26;93410.13;;;10.13;73.30
28911;BME280;16028;42.642;23.310;2023-04-16T03:26:53;93411.44;;;10.08;73.21
28911;BME280;16028;42.642;23.310;2023-04-16T03:29:20;93411.75;;;10.05;73.20
28911;BME280;16028;42.642;23.310;2023-04-16T03:31:46;93415.66;;;10.09;73.21
28911;BME280;16028;42.642;23.310;2023-04-16T03:34:13;93407.75;;;10.19;71.66
28911;BME280;16028;42.642;23.310;2023-04-16T03:36:40;93413.88;;;10.10;71.67
28911;BME280;16028;42.642;23.310;2023-04-16T03:39:07;93426.22;;;10.08;70.62
28911;BME280;16028;42.642;23.310;2023-04-16T03:41:34;93426.25;;;10.16;71.30
28911;BME280;16028;42.642;23.310;2023-04-16T03:44:00;93419.28;;;10.17;70.38
28911;BME280;16028;42.642;23.310;2023-04-16T03:46:27;93423.13;;;10.13;70.54
28911;BME280;16028;42.642;23.310;2023-04-16T03:48:53;93422.63;;;10.09;70.57
28911;BME280;16028;42.642;23.310;2023-04-16T03:51:20;93423.13;;;10.04;70.14
28911;BME280;16028;42.642;23.310;2023-04-16T03:53:46;93421.16;;;9.98;70.55
28911;BME280;16028;42.642;23.310;2023-04-16T03:56:14;93423.59;;;9.92;71.05
28911;BME280;16028;42.642;23.310;2023-04-16T03:58:41;93426.13;;;9.84;71.17
28911;BME280;16028;42.642;23.310;2023-04-16T04:01:07;93427.28;;;9.89;71.42
28911;BME280;16028;42.642;23.310;2023-04-16T04:03:34;93430.56;;;9.91;72.09
28911;BME280;16028;42.642;23.310;2023-04-16T04:06:00;93434.03;;;10.08;70.66
28911;BME280;16028;42.642;23.310;2023-04-16T04:08:27;93428.31;;;10.13;70.14
28911;BME280;16028;42.642;23.310;2023-04-16T04:10:53;93436.44;;;10.01;70.35
28911;BME280;16028;42.642;23.310;2023-04-16T04:13:21;93431.25;;;10.01;69.78
28911;BME280;16028;42.642;23.310;2023-04-16T04:15:48;93438.53;;;9.98;70.09
28911;BME280;16028;42.642;23.310;2023-04-16T04:18:14;93433.47;;;9.96;70.19
28911;BME280;16028;42.642;23.310;2023-04-16T04:20:41;93444.38;;;10.00;72.18
28911;BME280;16028;42.642;23.310;2023-04-16T04:23:07;93445.03;;;10.02;72.23
28911;BME280;16028;42.642;23.310;2023-04-16T04:25:34;93448.13;;;10.05;72.86
28911;BME280;16028;42.642;23.310;2023-04-16T04:28:01;93454.81;;;10.08;72.96
28911;BME280;16028;42.642;23.310;2023-04-16T04:30:29;93448.31;;;10.12;72.27
28911;BME280;16028;42.642;23.310;2023-04-16T04:32:55;93455.03;;;10.15;70.68
28911;BME280;16028;42.642;23.310;2023-04-16T04:35:22;93451.28;;;10.17;70.43
28911;BME280;16028;42.642;23.310;2023-04-16T04:37:48;93454.69;;;10.18;70.41
28911;BME280;16028;42.642;23.310;2023-04-16T04:40:15;93454.53;;;10.19;70.98
28911;BME280;16028;42.642;23.310;2023-04-16T04:42:42;93458.44;;;10.23;71.76
28911;BME280;16028;42.642;23.310;2023-04-16T04:45:09;93461.38;;;10.28;71.80
28911;BME280;16028;42.642;23.310;2023-04-16T04:47:37;93456.84;;;10.30;72.71
28911;BME280;16028;42.642;23.310;2023-04-16T04:50:04;93462.81;;;10.31;73.06
28911;BME280;16028;42.642;23.310;2023-04-16T04:52:31;93463.31;;;10.34;72.84
28911;BME280;16028;42.642;23.310;2023-04-16T04:54:57;93456.19;;;10.36;73.40
28911;BME280;16028;42.642;23.310;2023-04-16T04:57:24;93462.22;;;10.37;73.37
28911;BME280;16028;42.642;23.310;2023-04-16T04:59:50;93457.03;;;10.37;72.61
28911;BME280;16028;42.642;23.310;2023-04-16T05:02:17;93466.09;;;10.41;72.49
28911;BME280;16028;42.642;23.310;2023-04-16T05:04:44;93466.59;;;10.44;73.09
28911;BME280;16028;42.642;23.310;2023-04-16T05:07:11;93466.28;;;10.47;72.98
28911;BME280;16028;42.642;23.310;2023-04-16T05:09:37;93464.16;;;10.51;72.79
28911;BME280;16028;42.642;23.310;2023-04-16T05:12:04;93461.59;;;10.59;72.02
28911;BME280;16028;42.642;23.310;2023-04-16T05:14:31;93465.31;;;10.56;71.15
28911;BME280;16028;42.642;23.310;2023-04-16T05:16:57;93457.38;;;10.58;71.14
28911;BME280;16028;42.642;23.310;2023-04-16T05:19:24;93462.56;;;10.66;71.06
28911;BME280;16028;42.642;23.310;2023-04-16T05:21:52;93463.69;;;10.63;69.95
28911;BME280;16028;42.642;23.310;2023-04-16T05:24:19;93454.59;;;10.68;69.10
28911;BME280;16028;42.642;23.310;2023-04-16T05:26:46;93459.81;;;10.68;69.90
28911;BME280;16028;42.642;23.310;2023-04-16T05:29:12;93459.63;;;10.69;70.93
28911;BME280;16028;42.642;23.310;2023-04-16T05:31:39;93459.47;;;10.71;71.18
28911;BME280;16028;42.642;23.310;2023-04-16T05:34:05;93459.97;;;10.74;71.05
28911;BME280;16028;42.642;23.310;2023-04-16T05:36:32;93453.16;;;10.81;70.77
28911;BME280;16028;42.642;23.310;2023-04-16T05:39:00;93458.66;;;11.02;68.81
28911;BME280;16028;42.642;23.310;2023-04-16T05:41:26;93457.34;;;10.98;68.16
28911;BME280;16028;42.642;23.310;2023-04-16T05:43:53;93458.84;;;10.93;68.73
28911;BME280;16028;42.642;23.310;2023-04-16T05:46:19;93460.47;;;10.94;68.64
28911;BME280;16028;42.642;23.310;2023-04-16T05:48:46;93462.06;;;10.95;67.59
28911;BME280;16028;42.642;23.310;2023-04-16T05:51:12;93457.38;;;10.90;67.14
28911;BME280;16028;42.642;23.310;2023-04-16T05:53:38;93457.84;;;10.86;69.16
28911;BME280;16028;42.642;23.310;2023-04-16T05:56:07;93463.56;;;10.81;69.40
28911;BME280;16028;42.642;23.310;2023-04-16T05:58:34;93468.91;;;10.96;66.89
28911;BME280;16028;42.642;23.310;2023-04-16T06:01:00;93471.03;;;10.92;66.76
28911;BME280;16028;42.642;23.310;2023-04-16T06:03:27;93462.09;;;11.03;67.24
28911;BME280;16028;42.642;23.310;2023-04-16T06:05:54;93469.72;;;11.04;67.04
28911;BME280;16028;42.642;23.310;2023-04-16T06:08:20;93461.44;;;11.09;66.49
28911;BME280;16028;42.642;23.310;2023-04-16T06:10:47;93456.38;;;11.15;65.77
28911;BME280;16028;42.642;23.310;2023-04-16T06:13:15;93462.06;;;11.19;66.46
28911;BME280;16028;42.642;23.310;2023-04-16T06:15:42;93460.47;;;11.10;66.00
28911;BME280;16028;42.642;23.310;2023-04-16T06:18:08;93458.50;;;11.12;68.28
28911;BME280;16028;42.642;23.310;2023-04-16T06:20:35;93460.94;;;11.13;68.21
28911;BME280;16028;42.642;23.310;2023-04-16T06:23:01;93454.94;;;11.13;68.35
28911;BME280;16028;42.642;23.310;2023-04-16T06:25:28;93459.28;;;11.29;66.31
28911;BME280;16028;42.642;23.310;2023-04-16T06:27:54;93458.59;;;11.43;67.25
28911;BME280;16028;42.642;23.310;2023-04-16T06:30:22;93446.38;;;11.51;65.57
28911;BME280;16028;42.642;23.310;2023-04-16T06:32:49;93449.97;;;11.42;67.69
28911;BME280;16028;42.642;23.310;2023-04-16T06:35:15;93446.41;;;11.43;67.15
28911;BME280;16028;42.642;23.310;2023-04-16T06:37:44;93452.19;;;11.69;65.50
28911;BME280;16028;42.642;23.310;2023-04-16T06:40:13;93450.16;;;11.96;64.30
28911;BME280;16028;42.642;23.310;2023-04-16T06:42:41;93447.50;;;12.04;62.55
28911;BME280;16028;42.642;23.310;2023-04-16T06:45:07;93459.22;;;12.08;63.17
28911;BME280;16028;42.642;23.310;2023-04-16T06:47:35;93457.78;;;12.05;63.81
28911;BME280;16028;42.642;23.310;2023-04-16T06:50:02;93449.78;;;12.07;63.69
28911;BME280;16028;42.642;23.310;2023-04-16T06:52:28;93451.41;;;12.08;62.72
28911;BME280;16028;42.642;23.310;2023-04-16T06:54:55;93456.00;;;12.06;63.96
28911;BME280;16028;42.642;23.310;2023-04-16T06:57:22;93450.44;;;12.09;63.40
28911;BME280;16028;42.642;23.310;2023-04-16T06:59:48;93450.22;;;12.18;64.42
28911;BME280;16028;42.642;23.310;2023-04-16T07:02:15;93447.47;;;12.43;62.29
28911;BME280;16028;42.642;23.310;2023-04-16T07:04:43;93452.75;;;12.35;60.35
28911;BME280;16028;42.642;23.310;2023-04-16T07:07:09;93464.38;;;12.24;62.85
28911;BME280;16028;42.642;23.310;2023-04-16T07:09:36;93459.66;;;12.19;64.28
28911;BME280;16028;42.642;23.310;2023-04-16T07:12:02;93465.41;;;12.15;65.34
28911;BME280;16028;42.642;23.310;2023-04-16T07:14:29;93465.41;;;12.15;65.78
28911;BME280;16028;42.642;23.310;2023-04-16T07:16:55;93456.38;;;12.26;63.19
28911;BME280;16028;42.642;23.310;2023-04-16T07:19:22;93462.38;;;12.34;64.35
28911;BME280;16028;42.642;23.310;2023-04-16T07:21:50;93461.34;;;12.35;64.26
28911;BME280;16028;42.642;23.310;2023-04-16T07:24:16;93460.66;;;12.41;63.99
28911;BME280;16028;42.642;23.310;2023-04-16T07:26:43;93455.94;;;12.67;61.22
28911;BME280;16028;42.642;23.310;2023-04-16T07:29:09;93459.25;;;12.84;60.59
28911;BME280;16028;42.642;23.310;2023-04-16T07:31:36;93454.75;;;12.78;61.66
28911;BME280;16028;42.642;23.310;2023-04-16T07:34:03;93450.09;;;12.88;60.13
28911;BME280;16028;42.642;23.310;2023-04-16T07:36:32;93455.00;;;12.83;60.81
28911;BME280;16028;42.642;23.310;2023-04-16T07:38:59;93449.63;;;12.85;61.08
28911;BME280;16028;42.642;23.310;2023-04-16T07:41:26;93447.50;;;12.88;61.10
28911;BME280;16028;42.642;23.310;2023-04-16T07:43:54;93451.00;;;13.18;59.78
28911;BME280;16028;42.642;23.310;2023-04-16T07:46:20;93455.81;;;13.29;59.83
28911;BME280;16028;42.642;23.310;2023-04-16T07:48:47;93454.00;;;13.30;59.07
28911;BME280;16028;42.642;23.310;2023-04-16T07:51:13;93447.97;;;13.29;60.11
28911;BME280;16028;42.642;23.310;2023-04-16T07:53:40;93452.03;;;13.32;58.49
28911;BME280;16028;42.642;23.310;2023-04-16T07:56:09;93453.31;;;13.36;60.27
28911;BME280;16028;42.642;23.310;2023-04-16T07:58:35;93447.00;;;13.45;59.17
28911;BME280;16028;42.642;23.310;2023-04-16T08:01:02;93450.69;;;13.50;60.03
28911;BME280;16028;42.642;23.310;2023-04-16T08:03:28;93447.91;;;13.52;60.36
28911;BME280;16028;42.642;23.310;2023-04-16T08:05:55;93452.94;;;13.53;61.58
28911;BME280;16028;42.642;23.310;2023-04-16T08:08:22;93443.25;;;13.62;60.90
28911;BME280;16028;42.642;23.310;2023-04-16T08:10:49;93440.53;;;13.85;57.20
28911;BME280;16028;42.642;23.310;2023-04-16T08:13:21;93442.59;;;13.89;58.94
28911;BME280;16028;42.642;23.310;2023-04-16T08:15:47;93441.97;;;13.87;60.15
28911;BME280;16028;42.642;23.310;2023-04-16T08:18:14;93444.84;;;13.92;59.84
28911;BME280;16028;42.642;23.310;2023-04-16T08:20:40;93447.00;;;13.89;60.87
28911;BME280;16028;42.642;23.310;2023-04-16T08:23:07;93442.06;;;13.94;59.96
28911;BME280;16028;42.642;23.310;2023-04-16T08:25:33;93441.66;;;14.11;57.40
28911;BME280;16028;42.642;23.310;2023-04-16T08:28:00;93444.38;;;14.18;57.90
28911;BME280;16028;42.642;23.310;2023-04-16T08:30:28;93437.88;;;14.14;57.19
28911;BME280;16028;42.642;23.310;2023-04-16T08:32:54;93436.84;;;13.94;58.54
28911;BME280;16028;42.642;23.310;2023-04-16T08:35:21;93435.03;;;13.79;60.19
28911;BME280;16028;42.642;23.310;2023-04-16T08:37:48;93426.75;;;13.76;60.44
28911;BME280;16028;42.642;23.310;2023-04-16T08:40:14;93422.66;;;14.03;60.92
28911;BME280;16028;42.642;23.310;2023-04-16T08:42:43;93418.28;;;14.39;56.86
28911;BME280;16028;42.642;23.310;2023-04-16T08:45:12;93419.06;;;14.54;57.34
28911;BME280;16028;42.642;23.310;2023-04-16T08:47:40;93420.28;;;14.58;57.42
28911;BME280;16028;42.642;23.310;2023-04-16T08:50:08;93413.75;;;14.69;57.24
28911;BME280;16028;42.642;23.310;2023-04-16T08:52:36;93417.34;;;14.68;55.55
28911;BME280;16028;42.642;23.310;2023-04-16T08:55:09;93420.59;;;14.91;54.37
28911;BME280;16028;42.642;23.310;2023-04-16T08:57:38;93419.63;;;14.92;52.68
28911;BME280;16028;42.642;23.310;2023-04-16T09:00:06;93413.81;;;14.75;53.20
28911;BME280;16028;42.642;23.310;2023-04-16T09:02:33;93406.50;;;14.71;53.20
28911;BME280;16028;42.642;23.310;2023-04-16T09:05:04;93421.13;;;14.80;52.28
28911;BME280;16028;42.642;23.310;2023-04-16T09:07:32;93412.19;;;14.74;52.31
28911;BME280;16028;42.642;23.310;2023-04-16T09:09:59;93413.75;;;14.69;51.60
28911;BME280;16028;42.642;23.310;2023-04-16T09:12:26;93416.00;;;14.51;54.18
28911;BME280;16028;42.642;23.310;2023-04-16T09:14:54;93418.16;;;14.47;55.10
28911;BME280;16028;42.642;23.310;2023-04-16T09:17:22;93416.09;;;14.43;57.59
28911;BME280;16028;42.642;23.310;2023-04-16T09:19:49;93420.34;;;14.65;56.06
28911;BME280;16028;42.642;23.310;2023-04-16T09:22:17;93410.22;;;14.76;54.48
28911;BME280;16028;42.642;23.310;2023-04-16T09:24:43;93411.81;;;14.77;55.29
28911;BME280;16028;42.642;23.310;2023-04-16T09:27:10;93405.66;;;14.85;53.42
28911;BME280;16028;42.642;23.310;2023-04-16T09:29:38;93409.25;;;14.84;54.05
28911;BME280;16028;42.642;23.310;2023-04-16T09:32:05;93410.00;;;14.99;51.89
28911;BME280;16028;42.642;23.310;2023-04-16T09:34:32;93414.88;;;15.30;49.25
28911;BME280;16028;42.642;23.310;2023-04-16T09:37:14;93411.00;;;15.26;51.25
28911;BME280;16028;42.642;23.310;2023-04-16T09:39:43;93401.56;;;15.25;52.15
28911;BME280;16028;42.642;23.310;2023-04-16T09:42:10;93407.53;;;15.47;49.56
28911;BME280;16028;42.642;23.310;2023-04-16T09:44:37;93400.06;;;15.44;51.70
28911;BME280;16028;42.642;23.310;2023-04-16T09:47:05;93397.19;;;15.38;52.08
28911;BME280;16028;42.642;23.310;2023-04-16T09:49:32;93398.13;;;15.52;50.15
28911;BME280;16028;42.642;23.310;2023-04-16T09:51:59;93402.13;;;15.48;51.42
28911;BME280;16028;42.642;23.310;2023-04-16T09:54:26;93390.16;;;15.39;51.87
28911;BME280;16028;42.642;23.310;2023-04-16T09:56:55;93397.13;;;15.53;50.60
28911;BME280;16028;42.642;23.310;2023-04-16T09:59:22;93395.38;;;15.39;50.58
28911;BME280;16028;42.642;23.310;2023-04-16T10:01:49;93389.91;;;15.34;51.95
28911;BME280;16028;42.642;23.310;2023-04-16T10:04:17;93382.28;;;15.39;52.00
28911;BME280;16028;42.642;23.310;2023-04-16T10:06:43;93379.34;;;15.49;52.01
28911;BME280;16028;42.642;23.310;2023-04-16T10:09:12;93387.16;;;15.76;50.38
28911;BME280;16028;42.642;23.310;2023-04-16T10:11:39;93374.28;;;15.81;50.55
28911;BME280;16028;42.642;23.310;2023-04-16T10:14:07;93385.38;;;15.83;50.06
28911;BME280;16028;42.642;23.310;2023-04-16T10:16:33;93377.06;;;15.73;50.82
28911;BME280;16028;42.642;23.310;2023-04-16T10:19:00;93373.06;;;15.77;49.46
28911;BME280;16028;42.642;23.310;2023-04-16T10:21:27;93376.13;;;15.87;49.37
28911;BME280;16028;42.642;23.310;2023-04-16T10:23:57;93365.66;;;15.94;51.16
28911;BME280;16028;42.642;23.310;2023-04-16T10:26:24;93370.69;;;15.82;51.49
28911;BME280;16028;42.642;23.310;2023-04-16T10:28:50;93369.59;;;16.11;48.76
28911;BME280;16028;42.642;23.310;2023-04-16T10:31:18;93367.16;;;16.10;49.09
28911;BME280;16028;42.642;23.310;2023-04-16T10:33:45;93364.53;;;16.10;49.66
28911;BME280;16028;42.642;23.310;2023-04-16T10:36:13;93357.72;;;16.28;48.62
28911;BME280;16028;42.642;23.310;2023-04-16T10:38:40;93354.50;;;16.33;49.62
28911;BME280;16028;42.642;23.310;2023-04-16T10:41:08;93349.88;;;16.41;47.69
28911;BME280;16028;42.642;23.310;2023-04-16T10:43:39;93347.44;;;16.40;47.66
28911;BME280;16028;42.642;23.310;2023-04-16T10:48:49;93352.56;;;16.55;47.56
28911;BME280;16028;42.642;23.310;2023-04-16T10:51:22;93358.34;;;16.43;48.33
28911;BME280;16028;42.642;23.310;2023-04-16T10:53:50;93357.31;;;16.31;49.81
28911;BME280;16028;42.642;23.310;2023-04-16T10:56:21;93349.69;;;16.43;49.73
28911;BME280;16028;42.642;23.310;2023-04-16T10:58:48;93346.31;;;16.56;49.10
28911;BME280;16028;42.642;23.310;2023-04-16T11:01:14;93350.94;;;16.60;46.76
28911;BME280;16028;42.642;23.310;2023-04-16T11:03:42;93351.13;;;16.52;47.02
28911;BME280;16028;42.642;23.310;2023-04-16T11:06:10;93342.47;;;16.65;48.67
28911;BME280;16028;42.642;23.310;2023-04-16T11:08:37;93334.59;;;16.71;50.17
28911;BME280;16028;42.642;23.310;2023-04-16T11:11:04;93336.44;;;16.84;52.66
28911;BME280;16028;42.642;23.310;2023-04-16T11:13:31;93328.72;;;16.82;49.76
28911;BME280;16028;42.642;23.310;2023-04-16T11:15:59;93328.13;;;16.80;48.38
28911;BME280;16028;42.642;23.310;2023-04-16T11:18:26;93330.53;;;16.95;48.84
28911;BME280;16028;42.642;23.310;2023-04-16T11:20:52;93328.13;;;17.00;48.38
28911;BME280;16028;42.642;23.310;2023-04-16T11:23:20;93323.88;;;16.86;47.69
28911;BME280;16028;42.642;23.310;2023-04-16T11:25:47;93328.72;;;16.82;49.42
28911;BME280;16028;42.642;23.310;2023-04-16T11:28:15;93323.47;;;16.96;47.74
28911;BME280;16028;42.642;23.310;2023-04-16T11:30:42;93317.81;;;16.92;47.53
28911;BME280;16028;42.642;23.310;2023-04-16T11:33:09;93313.38;;;17.06;47.88
28911;BME280;16028;42.642;23.310;2023-04-16T11:35:36;93313.19;;;16.94;48.26
28911;BME280;16028;42.642;23.310;2023-04-16T11:38:03;93307.72;;;16.89;48.91
28911;BME280;16028;42.642;23.310;2023-04-16T11:40:32;93309.34;;;16.97;47.51
28911;BME280;16028;42.642;23.310;2023-04-16T11:43:00;93307.13;;;16.93;48.93
28911;BME280;16028;42.642;23.310;2023-04-16T11:45:27;93308.13;;;16.92;49.46
28911;BME280;16028;42.642;23.310;2023-04-16T11:47:53;93297.22;;;16.96;47.74
28911;BME280;16028;42.642;23.310;2023-04-16T11:50:22;93296.00;;;16.91;49.36
28911;BME280;16028;42.642;23.310;2023-04-16T11:52:49;93281.84;;;16.99;52.81
28911;BME280;16028;42.642;23.310;2023-04-16T11:55:16;93288.72;;;17.00;49.50
28911;BME280;16028;42.642;23.310;2023-04-16T11:57:44;93287.50;;;17.09;51.47
28911;BME280;16028;42.642;23.310;2023-04-16T12:00:11;93282.66;;;17.00;53.73
28911;BME280;16028;42.642;23.310;2023-04-16T12:02:39;93285.88;;;16.88;52.32
28911;BME280;16028;42.642;23.310;2023-04-16T12:05:07;93273.78;;;17.01;53.34
28911;BME280;16028;42.642;23.310;2023-04-16T12:07:51;93269.28;;;17.08;50.73
28911;BME280;16028;42.642;23.310;2023-04-16T12:10:17;93269.72;;;16.98;51.10
28911;BME280;16028;42.642;23.310;2023-04-16T12:12:45;93270.50;;;17.12;49.18
28911;BME280;16028;42.642;23.310;2023-04-16T12:15:12;93260.81;;;17.12;52.03
28911;BME280;16028;42.642;23.310;2023-04-16T12:17:38;93260.78;;;17.25;49.90
28911;BME280;16028;42.642;23.310;2023-04-16T12:20:07;93255.25;;;17.40;48.65
28911;BME280;16028;42.642;23.310;2023-04-16T12:22:34;93259.91;;;17.51;47.98
28911;BME280;16028;42.642;23.310;2023-04-16T12:25:01;93259.28;;;17.49;46.71
28911;BME280;16028;42.642;23.310;2023-04-16T12:27:43;93263.19;;;17.27;47.98
28911;BME280;16028;42.642;23.310;2023-04-16T12:30:13;93251.91;;;17.13;49.64
28911;BME280;16028;42.642;23.310;2023-04-16T12:32:39;93252.50;;;17.15;50.62
28911;BME280;16028;42.642;23.310;2023-04-16T12:35:06;93250.03;;;17.27;49.57
28911;BME280;16028;42.642;23.310;2023-04-16T12:37:34;93247.84;;;17.17;49.19
28911;BME280;16028;42.642;23.310;2023-04-16T12:40:00;93242.41;;;17.19;52.53
28911;BME280;16028;42.642;23.310;2023-04-16T12:42:28;93239.38;;;17.09;51.57
28911;BME280;16028;42.642;23.310;2023-04-16T12:44:59;93239.78;;;17.06;50.16
28911;BME280;16028;42.642;23.310;2023-04-16T12:47:27;93241.81;;;17.10;48.71
28911;BME280;16028;42.642;23.310;2023-04-16T12:49:54;93245.25;;;17.04;49.76
28911;BME280;16028;42.642;23.310;2023-04-16T12:52:21;93239.22;;;17.04;48.59